sensor_id;sensor_type;location;lat;lon;timestamp;noise_LAeq;noise_LA_min;noise_LA_max;noise_LA01;noise_LA95
66456;Laerm;56833;52.254;5.598;2022-12-07T00:00:04;31.87;29.94;35.73;;
66456;Laerm;56833;52.254;5.598;2022-12-07T00:00:15;32.36;30.44;34.09;;
66456;Laerm;56833;52.254;5.598;2022-12-07T00:00:25;32.46;30.55;38.96;;
66456;Laerm;56833;52.254;5.598;2022-12-07T00:00:35;31.70;30.16;34.15;;
66456;Laerm;56833;52.254;5.598;2022-12-07T00:00:46;31.96;30.17;40.29;;
66456;Laerm;56833;52.254;5.598;2022-12-07T00:01:19;33.82;30.52;39.40;;
66456;Laerm;56833;52.254;5.598;2022-12-07T00:01:31;34.60;32.02;38.87;;
66456;Laerm;56833;52.254;5.598;2022-12-07T00:01:42;33.99;31.43;37.10;;
66456;Laerm;56833;52.254;5.598;2022-12-07T00:01:53;33.92;31.50;36.34;;
66456;Laerm;56833;52.254;5.598;2022-12-07T00:02:03;33.55;31.46;35.85;;
66456;Laerm;56833;52.254;5.598;2022-12-07T00:02:13;33.62;31.35;37.73;;
66456;Laerm;56833;52.254;5.598;2022-12-07T00:02:23;34.28;31.19;42.92;;
66456;Laerm;56833;52.254;5.598;2022-12-07T00:02:34;32.51;30.83;34.32;;
66456;Laerm;56833;52.254;5.598;2022-12-07T00:02:44;33.25;30.89;35.16;;
66456;Laerm;56833;52.254;5.598;2022-12-07T00:02:54;33.39;31.11;35.33;;
66456;Laerm;56833;52.254;5.598;2022-12-07T00:03:04;34.71;32.24;37.24;;
66456;Laerm;56833;52.254;5.598;2022-12-07T00:03:14;35.82;33.25;39.71;;
66456;Laerm;56833;52.254;5.598;2022-12-07T00:03:25;35.97;33.33;39.05;;
66456;Laerm;56833;52.254;5.598;2022-12-07T00:03:35;34.88;32.88;36.93;;
66456;Laerm;56833;52.254;5.598;2022-12-07T00:03:46;35.57;32.38;38.08;;
66456;Laerm;56833;52.254;5.598;2022-12-07T00:03:58;35.84;33.04;38.44;;
66456;Laerm;56833;52.254;5.598;2022-12-07T00:04:15;37.93;33.54;49.44;;
66456;Laerm;56833;52.254;5.598;2022-12-07T00:04:26;36.52;33.97;40.65;;
66456;Laerm;56833;52.254;5.598;2022-12-07T00:04:36;36.25;32.96;38.71;;
66456;Laerm;56833;52.254;5.598;2022-12-07T00:04:48;35.25;33.10;37.34;;
66456;Laerm;56833;52.254;5.598;2022-12-07T00:04:58;35.61;32.82;41.81;;
66456;Laerm;56833;52.254;5.598;2022-12-07T00:05:08;36.24;32.96;46.25;;
66456;Laerm;56833;52.254;5.598;2022-12-07T00:05:18;35.52;32.99;37.62;;
66456;Laerm;56833;52.254;5.598;2022-12-07T00:05:29;35.17;32.59;37.65;;
66456;Laerm;56833;52.254;5.598;2022-12-07T00:05:39;34.49;32.21;37.97;;
66456;Laerm;56833;52.254;5.598;2022-12-07T00:05:50;34.45;32.53;36.26;;
66456;Laerm;56833;52.254;5.598;2022-12-07T00:06:00;34.22;32.28;37.20;;
66456;Laerm;56833;52.254;5.598;2022-12-07T00:06:11;34.69;32.64;37.47;;
66456;Laerm;56833;52.254;5.598;2022-12-07T00:06:22;34.32;32.01;37.66;;
66456;Laerm;56833;52.254;5.598;2022-12-07T00:06:33;38.27;32.74;54.53;;
66456;Laerm;56833;52.254;5.598;2022-12-07T00:06:45;35.06;32.16;46.51;;
66456;Laerm;56833;52.254;5.598;2022-12-07T00:06:56;34.00;31.96;35.97;;
66456;Laerm;56833;52.254;5.598;2022-12-07T00:07:06;33.94;31.77;36.40;;
66456;Laerm;56833;52.254;5.598;2022-12-07T00:07:16;34.61;32.53;36.81;;
66456;Laerm;56833;52.254;5.598;2022-12-07T00:07:27;34.19;31.90;36.26;;
66456;Laerm;56833;52.254;5.598;2022-12-07T00:07:37;34.37;32.01;37.59;;
66456;Laerm;56833;52.254;5.598;2022-12-07T00:07:47;34.82;32.64;37.10;;
66456;Laerm;56833;52.254;5.598;2022-12-07T00:07:57;35.37;32.67;40.12;;
66456;Laerm;56833;52.254;5.598;2022-12-07T00:08:07;35.44;31.95;38.64;;
66456;Laerm;56833;52.254;5.598;2022-12-07T00:08:18;33.70;30.98;35.56;;
66456;Laerm;56833;52.254;5.598;2022-12-07T00:08:28;33.96;31.86;35.93;;
66456;Laerm;56833;52.254;5.598;2022-12-07T00:08:38;33.71;31.82;35.91;;
66456;Laerm;56833;52.254;5.598;2022-12-07T00:08:49;33.84;31.61;36.19;;
66456;Laerm;56833;52.254;5.598;2022-12-07T00:08:59;34.01;32.28;35.81;;
66456;Laerm;56833;52.254;5.598;2022-12-07T00:09:10;34.33;32.22;37.61;;
66456;Laerm;56833;52.254;5.598;2022-12-07T00:09:21;34.48;32.08;42.50;;
66456;Laerm;56833;52.254;5.598;2022-12-07T00:09:31;34.39;32.08;36.39;;
66456;Laerm;56833;52.254;5.598;2022-12-07T00:09:42;34.67;32.29;37.27;;
66456;Laerm;56833;52.254;5.598;2022-12-07T00:09:52;35.69;32.67;39.75;;
66456;Laerm;56833;52.254;5.598;2022-12-07T00:10:02;37.62;35.18;40.23;;
66456;Laerm;56833;52.254;5.598;2022-12-07T00:10:12;36.81;33.61;41.48;;
66456;Laerm;56833;52.254;5.598;2022-12-07T00:10:23;36.38;33.76;39.06;;
66456;Laerm;56833;52.254;5.598;2022-12-07T00:10:33;37.84;33.88;43.45;;
66456;Laerm;56833;52.254;5.598;2022-12-07T00:10:44;36.51;32.23;40.51;;
66456;Laerm;56833;52.254;5.598;2022-12-07T00:10:54;36.02;33.22;38.59;;
66456;Laerm;56833;52.254;5.598;2022-12-07T00:11:06;35.87;33.25;38.80;;
66456;Laerm;56833;52.254;5.598;2022-12-07T00:11:18;35.89;33.07;38.53;;
66456;Laerm;56833;52.254;5.598;2022-12-07T00:11:29;34.67;32.24;37.46;;
66456;Laerm;56833;52.254;5.598;2022-12-07T00:11:39;35.88;33.92;37.74;;
66456;Laerm;56833;52.254;5.598;2022-12-07T00:11:50;35.79;32.90;38.49;;
66456;Laerm;56833;52.254;5.598;2022-12-07T00:12:00;35.45;33.28;38.09;;
66456;Laerm;56833;52.254;5.598;2022-12-07T00:12:11;35.09;32.61;37.09;;
66456;Laerm;56833;52.254;5.598;2022-12-07T00:12:21;34.61;32.48;36.71;;
66456;Laerm;56833;52.254;5.598;2022-12-07T00:12:31;34.98;32.42;37.30;;
66456;Laerm;56833;52.254;5.598;2022-12-07T00:12:41;34.42;32.19;37.66;;
66456;Laerm;56833;52.254;5.598;2022-12-07T00:12:52;34.02;31.64;35.96;;
66456;Laerm;56833;52.254;5.598;2022-12-07T00:13:02;34.56;32.68;36.14;;
66456;Laerm;56833;52.254;5.598;2022-12-07T00:13:12;33.84;31.53;35.87;;
66456;Laerm;56833;52.254;5.598;2022-12-07T00:13:22;34.15;31.88;36.69;;
66456;Laerm;56833;52.254;5.598;2022-12-07T00:13:33;34.78;32.60;38.16;;
66456;Laerm;56833;52.254;5.598;2022-12-07T00:13:44;34.07;31.86;36.36;;
66456;Laerm;56833;52.254;5.598;2022-12-07T00:13:56;33.41;31.19;35.06;;
66456;Laerm;56833;52.254;5.598;2022-12-07T00:14:08;34.17;31.35;36.02;;
66456;Laerm;56833;52.254;5.598;2022-12-07T00:14:20;34.14;31.72;36.98;;
66456;Laerm;56833;52.254;5.598;2022-12-07T00:14:30;38.09;35.25;41.76;;
66456;Laerm;56833;52.254;5.598;2022-12-07T00:14:40;37.97;33.93;42.66;;
66456;Laerm;56833;52.254;5.598;2022-12-07T00:14:51;34.72;31.64;40.01;;
66456;Laerm;56833;52.254;5.598;2022-12-07T00:15:01;35.02;32.60;38.52;;
66456;Laerm;56833;52.254;5.598;2022-12-07T00:15:11;36.13;33.10;39.53;;
66456;Laerm;56833;52.254;5.598;2022-12-07T00:15:21;34.09;31.70;36.52;;
66456;Laerm;56833;52.254;5.598;2022-12-07T00:15:33;35.53;32.50;39.15;;
66456;Laerm;56833;52.254;5.598;2022-12-07T00:15:43;35.32;32.22;41.01;;
66456;Laerm;56833;52.254;5.598;2022-12-07T00:15:54;35.91;33.41;41.32;;
66456;Laerm;56833;52.254;5.598;2022-12-07T00:16:05;37.83;34.13;44.56;;
66456;Laerm;56833;52.254;5.598;2022-12-07T00:16:17;37.27;34.56;39.69;;
66456;Laerm;56833;52.254;5.598;2022-12-07T00:16:28;35.73;34.08;37.54;;
66456;Laerm;56833;52.254;5.598;2022-12-07T00:16:39;37.36;34.53;41.09;;
66456;Laerm;56833;52.254;5.598;2022-12-07T00:16:50;37.56;34.44;40.44;;
66456;Laerm;56833;52.254;5.598;2022-12-07T00:17:01;35.74;32.47;42.99;;
66456;Laerm;56833;52.254;5.598;2022-12-07T00:17:11;40.79;35.20;46.85;;
66456;Laerm;56833;52.254;5.598;2022-12-07T00:17:21;47.10;39.80;53.44;;
66456;Laerm;56833;52.254;5.598;2022-12-07T00:17:32;49.74;41.84;59.15;;
66456;Laerm;56833;52.254;5.598;2022-12-07T00:17:43;49.68;40.15;60.59;;
66456;Laerm;56833;52.254;5.598;2022-12-07T00:17:53;46.67;39.44;52.34;;
66456;Laerm;56833;52.254;5.598;2022-12-07T00:18:04;45.90;39.46;52.79;;
66456;Laerm;56833;52.254;5.598;2022-12-07T00:18:14;46.89;38.23;52.98;;
66456;Laerm;56833;52.254;5.598;2022-12-07T00:18:24;47.93;39.79;54.91;;
66456;Laerm;56833;52.254;5.598;2022-12-07T00:18:34;45.84;37.90;52.37;;
66456;Laerm;56833;52.254;5.598;2022-12-07T00:18:45;42.58;35.66;49.81;;
66456;Laerm;56833;52.254;5.598;2022-12-07T00:18:55;39.66;34.56;49.08;;
66456;Laerm;56833;52.254;5.598;2022-12-07T00:19:06;38.11;34.03;43.13;;
66456;Laerm;56833;52.254;5.598;2022-12-07T00:19:16;37.03;33.05;53.51;;
66456;Laerm;56833;52.254;5.598;2022-12-07T00:19:26;34.76;31.89;38.42;;
66456;Laerm;56833;52.254;5.598;2022-12-07T00:19:37;33.86;31.61;37.14;;
66456;Laerm;56833;52.254;5.598;2022-12-07T00:19:47;33.34;31.38;35.58;;
66456;Laerm;56833;52.254;5.598;2022-12-07T00:19:57;32.78;30.90;34.90;;
66456;Laerm;56833;52.254;5.598;2022-12-07T00:20:07;34.47;31.91;39.41;;
66456;Laerm;56833;52.254;5.598;2022-12-07T00:20:18;33.58;31.22;35.66;;
66456;Laerm;56833;52.254;5.598;2022-12-07T00:20:28;34.60;31.15;38.03;;
66456;Laerm;56833;52.254;5.598;2022-12-07T00:20:38;33.96;31.52;37.72;;
66456;Laerm;56833;52.254;5.598;2022-12-07T00:20:49;32.50;30.55;34.14;;
66456;Laerm;56833;52.254;5.598;2022-12-07T00:21:06;32.85;30.96;35.92;;
66456;Laerm;56833;52.254;5.598;2022-12-07T00:21:18;36.48;32.56;41.38;;
66456;Laerm;56833;52.254;5.598;2022-12-07T00:21:29;34.95;33.20;36.89;;
66456;Laerm;56833;52.254;5.598;2022-12-07T00:21:40;39.17;34.18;44.36;;
66456;Laerm;56833;52.254;5.598;2022-12-07T00:21:51;41.96;35.13;47.24;;
66456;Laerm;56833;52.254;5.598;2022-12-07T00:22:01;36.52;33.88;38.68;;
66456;Laerm;56833;52.254;5.598;2022-12-07T00:22:11;34.56;32.08;37.65;;
66456;Laerm;56833;52.254;5.598;2022-12-07T00:22:22;34.93;32.76;37.75;;
66456;Laerm;56833;52.254;5.598;2022-12-07T00:22:32;35.48;33.23;37.86;;
66456;Laerm;56833;52.254;5.598;2022-12-07T00:22:42;35.91;32.87;39.20;;
66456;Laerm;56833;52.254;5.598;2022-12-07T00:22:52;35.12;32.93;38.47;;
66456;Laerm;56833;52.254;5.598;2022-12-07T00:23:03;36.30;33.81;42.31;;
66456;Laerm;56833;52.254;5.598;2022-12-07T00:23:13;34.98;32.30;37.37;;
66456;Laerm;56833;52.254;5.598;2022-12-07T00:23:23;33.97;31.90;35.86;;
66456;Laerm;56833;52.254;5.598;2022-12-07T00:23:34;33.13;31.59;34.95;;
66456;Laerm;56833;52.254;5.598;2022-12-07T00:23:44;33.66;32.08;36.14;;
66456;Laerm;56833;52.254;5.598;2022-12-07T00:23:55;34.60;32.84;38.01;;
66456;Laerm;56833;52.254;5.598;2022-12-07T00:24:06;33.70;32.10;38.31;;
66456;Laerm;56833;52.254;5.598;2022-12-07T00:24:16;34.04;32.04;37.62;;
66456;Laerm;56833;52.254;5.598;2022-12-07T00:24:26;33.12;31.49;36.18;;
66456;Laerm;56833;52.254;5.598;2022-12-07T00:24:37;34.59;32.26;36.54;;
66456;Laerm;56833;52.254;5.598;2022-12-07T00:24:47;34.08;31.30;38.25;;
66456;Laerm;56833;52.254;5.598;2022-12-07T00:24:57;33.85;31.95;38.84;;
66456;Laerm;56833;52.254;5.598;2022-12-07T00:25:07;33.63;31.81;35.87;;
66456;Laerm;56833;52.254;5.598;2022-12-07T00:25:18;32.28;30.67;34.04;;
66456;Laerm;56833;52.254;5.598;2022-12-07T00:25:28;31.92;30.24;34.30;;
66456;Laerm;56833;52.254;5.598;2022-12-07T00:25:40;31.73;29.75;35.07;;
66456;Laerm;56833;52.254;5.598;2022-12-07T00:25:50;31.95;30.59;36.06;;
66456;Laerm;56833;52.254;5.598;2022-12-07T00:26:07;31.56;30.04;35.52;;
66456;Laerm;56833;52.254;5.598;2022-12-07T00:26:25;31.61;30.25;33.51;;
66456;Laerm;56833;52.254;5.598;2022-12-07T00:26:37;31.49;30.02;35.96;;
66456;Laerm;56833;52.254;5.598;2022-12-07T00:26:47;31.63;29.97;40.49;;
66456;Laerm;56833;52.254;5.598;2022-12-07T00:26:57;31.51;29.86;35.87;;
66456;Laerm;56833;52.254;5.598;2022-12-07T00:27:08;31.58;29.91;33.47;;
66456;Laerm;56833;52.254;5.598;2022-12-07T00:27:18;32.01;30.35;33.90;;
66456;Laerm;56833;52.254;5.598;2022-12-07T00:27:28;31.91;30.59;33.55;;
66456;Laerm;56833;52.254;5.598;2022-12-07T00:27:38;31.83;30.05;33.37;;
66456;Laerm;56833;52.254;5.598;2022-12-07T00:27:49;32.10;30.55;39.67;;
66456;Laerm;56833;52.254;5.598;2022-12-07T00:27:59;32.54;30.35;36.12;;
66456;Laerm;56833;52.254;5.598;2022-12-07T00:28:09;32.67;31.01;35.06;;
66456;Laerm;56833;52.254;5.598;2022-12-07T00:28:20;32.73;30.87;36.24;;
66456;Laerm;56833;52.254;5.598;2022-12-07T00:28:31;32.20;30.75;34.96;;
66456;Laerm;56833;52.254;5.598;2022-12-07T00:28:44;34.33;30.96;39.15;;
66456;Laerm;56833;52.254;5.598;2022-12-07T00:28:56;32.42;30.13;38.24;;
66456;Laerm;56833;52.254;5.598;2022-12-07T00:29:11;31.99;30.21;35.75;;
66456;Laerm;56833;52.254;5.598;2022-12-07T00:29:23;31.71;29.76;33.57;;
66456;Laerm;56833;52.254;5.598;2022-12-07T00:29:33;31.66;30.03;33.19;;
66456;Laerm;56833;52.254;5.598;2022-12-07T00:29:44;31.85;30.02;34.65;;
66456;Laerm;56833;52.254;5.598;2022-12-07T00:29:54;31.72;30.23;33.23;;
66456;Laerm;56833;52.254;5.598;2022-12-07T00:30:04;31.79;30.06;33.72;;
66456;Laerm;56833;52.254;5.598;2022-12-07T00:30:15;31.50;29.98;35.19;;
66456;Laerm;56833;52.254;5.598;2022-12-07T00:30:25;31.45;29.86;33.75;;
66456;Laerm;56833;52.254;5.598;2022-12-07T00:30:35;31.85;30.41;33.99;;
66456;Laerm;56833;52.254;5.598;2022-12-07T00:30:45;31.49;30.10;33.58;;
66456;Laerm;56833;52.254;5.598;2022-12-07T00:31:02;31.60;29.83;35.97;;
66456;Laerm;56833;52.254;5.598;2022-12-07T00:31:14;31.42;29.77;40.99;;
66456;Laerm;56833;52.254;5.598;2022-12-07T00:31:25;31.60;29.93;35.76;;
66456;Laerm;56833;52.254;5.598;2022-12-07T00:31:36;31.75;30.00;35.09;;
66456;Laerm;56833;52.254;5.598;2022-12-07T00:31:48;31.80;30.33;33.59;;
66456;Laerm;56833;52.254;5.598;2022-12-07T00:31:58;31.81;30.50;33.16;;
66456;Laerm;56833;52.254;5.598;2022-12-07T00:32:09;31.84;30.22;34.26;;
66456;Laerm;56833;52.254;5.598;2022-12-07T00:32:19;31.97;30.44;33.62;;
66456;Laerm;56833;52.254;5.598;2022-12-07T00:32:29;31.69;30.12;33.53;;
66456;Laerm;56833;52.254;5.598;2022-12-07T00:32:39;31.43;30.11;32.62;;
66456;Laerm;56833;52.254;5.598;2022-12-07T00:32:50;31.46;30.33;32.98;;
66456;Laerm;56833;52.254;5.598;2022-12-07T00:33:00;31.97;30.80;33.18;;
66456;Laerm;56833;52.254;5.598;2022-12-07T00:33:10;31.94;30.47;34.50;;
66456;Laerm;56833;52.254;5.598;2022-12-07T00:33:20;31.67;30.39;33.52;;
66456;Laerm;56833;52.254;5.598;2022-12-07T00:33:31;31.48;29.93;32.70;;
66456;Laerm;56833;52.254;5.598;2022-12-07T00:33:41;31.54;30.24;34.97;;
66456;Laerm;56833;52.254;5.598;2022-12-07T00:33:52;31.48;29.83;34.90;;
66456;Laerm;56833;52.254;5.598;2022-12-07T00:34:02;31.88;30.41;33.88;;
66456;Laerm;56833;52.254;5.598;2022-12-07T00:34:14;31.39;29.99;34.71;;
66456;Laerm;56833;52.254;5.598;2022-12-07T00:34:25;31.56;29.77;33.72;;
66456;Laerm;56833;52.254;5.598;2022-12-07T00:34:35;31.56;30.30;33.23;;
66456;Laerm;56833;52.254;5.598;2022-12-07T00:34:45;31.39;29.93;33.06;;
66456;Laerm;56833;52.254;5.598;2022-12-07T00:34:56;32.07;30.71;37.69;;
66456;Laerm;56833;52.254;5.598;2022-12-07T00:35:06;32.34;30.66;34.28;;
66456;Laerm;56833;52.254;5.598;2022-12-07T00:35:16;33.33;30.53;43.28;;
66456;Laerm;56833;52.254;5.598;2022-12-07T00:35:27;31.70;30.02;33.66;;
66456;Laerm;56833;52.254;5.598;2022-12-07T00:35:37;31.53;30.15;33.25;;
66456;Laerm;56833;52.254;5.598;2022-12-07T00:35:54;31.61;30.13;34.03;;
66456;Laerm;56833;52.254;5.598;2022-12-07T00:36:06;31.58;29.49;34.76;;
66456;Laerm;56833;52.254;5.598;2022-12-07T00:36:20;31.74;30.04;34.97;;
66456;Laerm;56833;52.254;5.598;2022-12-07T00:36:31;34.19;31.04;37.78;;
66456;Laerm;56833;52.254;5.598;2022-12-07T00:36:41;33.43;31.63;35.62;;
66456;Laerm;56833;52.254;5.598;2022-12-07T00:36:51;32.91;30.50;36.01;;
66456;Laerm;56833;52.254;5.598;2022-12-07T00:37:01;31.75;30.27;34.06;;
66456;Laerm;56833;52.254;5.598;2022-12-07T00:37:11;32.36;29.83;35.65;;
66456;Laerm;56833;52.254;5.598;2022-12-07T00:37:23;32.20;30.04;34.52;;
66456;Laerm;56833;52.254;5.598;2022-12-07T00:37:33;31.49;30.05;33.50;;
66456;Laerm;56833;52.254;5.598;2022-12-07T00:37:43;32.70;29.69;49.57;;
66456;Laerm;56833;52.254;5.598;2022-12-07T00:37:53;30.90;29.28;32.51;;
66456;Laerm;56833;52.254;5.598;2022-12-07T00:38:04;31.14;29.72;32.42;;
66456;Laerm;56833;52.254;5.598;2022-12-07T00:38:14;30.82;29.43;32.07;;
66456;Laerm;56833;52.254;5.598;2022-12-07T00:38:24;30.70;29.46;32.78;;
66456;Laerm;56833;52.254;5.598;2022-12-07T00:38:35;31.48;29.82;35.62;;
66456;Laerm;56833;52.254;5.598;2022-12-07T00:38:46;31.73;29.71;35.18;;
66456;Laerm;56833;52.254;5.598;2022-12-07T00:38:57;31.43;30.05;36.08;;
66456;Laerm;56833;52.254;5.598;2022-12-07T00:39:07;31.47;29.49;33.76;;
66456;Laerm;56833;52.254;5.598;2022-12-07T00:39:18;31.48;30.03;33.48;;
66456;Laerm;56833;52.254;5.598;2022-12-07T00:39:28;34.43;31.61;38.41;;
66456;Laerm;56833;52.254;5.598;2022-12-07T00:39:39;36.28;31.10;44.05;;
66456;Laerm;56833;52.254;5.598;2022-12-07T00:39:49;31.99;30.58;33.53;;
66456;Laerm;56833;52.254;5.598;2022-12-07T00:39:59;33.06;30.82;36.11;;
66456;Laerm;56833;52.254;5.598;2022-12-07T00:40:10;32.09;30.49;33.82;;
66456;Laerm;56833;52.254;5.598;2022-12-07T00:40:20;33.39;31.69;35.66;;
66456;Laerm;56833;52.254;5.598;2022-12-07T00:40:30;33.46;30.83;37.43;;
66456;Laerm;56833;52.254;5.598;2022-12-07T00:40:41;31.83;30.13;33.50;;
66456;Laerm;56833;52.254;5.598;2022-12-07T00:40:57;34.18;32.01;36.65;;
66456;Laerm;56833;52.254;5.598;2022-12-07T00:41:12;33.77;31.12;36.72;;
66456;Laerm;56833;52.254;5.598;2022-12-07T00:41:23;33.46;31.18;37.96;;
66456;Laerm;56833;52.254;5.598;2022-12-07T00:41:34;32.51;30.50;35.91;;
66456;Laerm;56833;52.254;5.598;2022-12-07T00:41:44;33.27;30.68;38.04;;
66456;Laerm;56833;52.254;5.598;2022-12-07T00:41:54;31.97;30.11;33.77;;
66456;Laerm;56833;52.254;5.598;2022-12-07T00:42:05;32.21;30.68;34.03;;
66456;Laerm;56833;52.254;5.598;2022-12-07T00:42:15;32.47;30.81;35.74;;
66456;Laerm;56833;52.254;5.598;2022-12-07T00:42:25;32.09;30.37;33.84;;
66456;Laerm;56833;52.254;5.598;2022-12-07T00:42:35;32.13;30.55;33.89;;
66456;Laerm;56833;52.254;5.598;2022-12-07T00:42:46;32.40;30.76;34.18;;
66456;Laerm;56833;52.254;5.598;2022-12-07T00:42:56;32.19;30.43;33.80;;
66456;Laerm;56833;52.254;5.598;2022-12-07T00:43:06;32.04;30.09;35.00;;
66456;Laerm;56833;52.254;5.598;2022-12-07T00:43:16;31.64;30.04;33.90;;
66456;Laerm;56833;52.254;5.598;2022-12-07T00:43:27;33.25;30.72;37.23;;
66456;Laerm;56833;52.254;5.598;2022-12-07T00:43:37;32.17;30.21;35.29;;
66456;Laerm;56833;52.254;5.598;2022-12-07T00:43:48;31.66;30.19;33.24;;
66456;Laerm;56833;52.254;5.598;2022-12-07T00:43:59;31.70;30.10;34.20;;
66456;Laerm;56833;52.254;5.598;2022-12-07T00:44:09;31.81;30.25;33.80;;
66456;Laerm;56833;52.254;5.598;2022-12-07T00:44:20;32.52;30.46;39.90;;
66456;Laerm;56833;52.254;5.598;2022-12-07T00:44:30;31.67;30.29;33.36;;
66456;Laerm;56833;52.254;5.598;2022-12-07T00:44:40;32.02;30.27;34.17;;
66456;Laerm;56833;52.254;5.598;2022-12-07T00:44:50;32.17;30.49;34.37;;
66456;Laerm;56833;52.254;5.598;2022-12-07T00:45:01;32.19;30.40;34.75;;
66456;Laerm;56833;52.254;5.598;2022-12-07T00:45:11;32.65;30.55;36.72;;
66456;Laerm;56833;52.254;5.598;2022-12-07T00:45:21;32.44;30.58;36.34;;
66456;Laerm;56833;52.254;5.598;2022-12-07T00:45:31;35.60;30.27;52.39;;
66456;Laerm;56833;52.254;5.598;2022-12-07T00:45:42;34.61;30.66;51.43;;
66456;Laerm;56833;52.254;5.598;2022-12-07T00:45:52;35.11;31.24;50.62;;
66456;Laerm;56833;52.254;5.598;2022-12-07T00:46:03;32.68;30.68;35.61;;
66456;Laerm;56833;52.254;5.598;2022-12-07T00:46:14;32.45;30.53;35.85;;
66456;Laerm;56833;52.254;5.598;2022-12-07T00:46:24;33.80;31.40;40.27;;
66456;Laerm;56833;52.254;5.598;2022-12-07T00:46:35;34.06;30.64;41.37;;
66456;Laerm;56833;52.254;5.598;2022-12-07T00:46:45;31.97;30.17;33.67;;
66456;Laerm;56833;52.254;5.598;2022-12-07T00:46:55;32.04;30.14;33.90;;
66456;Laerm;56833;52.254;5.598;2022-12-07T00:47:06;32.47;30.55;34.04;;
66456;Laerm;56833;52.254;5.598;2022-12-07T00:47:16;35.71;30.68;45.21;;
66456;Laerm;56833;52.254;5.598;2022-12-07T00:47:26;35.35;31.61;44.50;;
66456;Laerm;56833;52.254;5.598;2022-12-07T00:47:36;32.66;30.49;36.64;;
66456;Laerm;56833;52.254;5.598;2022-12-07T00:47:47;32.16;30.46;34.05;;
66456;Laerm;56833;52.254;5.598;2022-12-07T00:47:57;32.67;30.19;36.67;;
66456;Laerm;56833;52.254;5.598;2022-12-07T00:48:07;32.60;30.60;34.77;;
66456;Laerm;56833;52.254;5.598;2022-12-07T00:48:17;32.49;30.73;34.63;;
66456;Laerm;56833;52.254;5.598;2022-12-07T00:48:27;31.86;29.73;33.67;;
66456;Laerm;56833;52.254;5.598;2022-12-07T00:48:38;32.71;30.44;35.89;;
66456;Laerm;56833;52.254;5.598;2022-12-07T00:48:49;32.34;30.36;35.17;;
66456;Laerm;56833;52.254;5.598;2022-12-07T00:48:59;31.11;29.44;33.51;;
66456;Laerm;56833;52.254;5.598;2022-12-07T00:49:09;31.19;29.92;32.93;;
66456;Laerm;56833;52.254;5.598;2022-12-07T00:49:19;31.43;29.80;33.22;;
66456;Laerm;56833;52.254;5.598;2022-12-07T00:49:30;31.60;29.55;36.86;;
66456;Laerm;56833;52.254;5.598;2022-12-07T00:49:40;31.63;29.71;41.42;;
66456;Laerm;56833;52.254;5.598;2022-12-07T00:49:50;31.23;29.81;33.52;;
66456;Laerm;56833;52.254;5.598;2022-12-07T00:50:00;31.55;30.05;33.30;;
66456;Laerm;56833;52.254;5.598;2022-12-07T00:50:11;31.13;29.86;32.56;;
66456;Laerm;56833;52.254;5.598;2022-12-07T00:50:21;31.45;29.41;33.65;;
66456;Laerm;56833;52.254;5.598;2022-12-07T00:50:31;31.65;29.88;36.68;;
66456;Laerm;56833;52.254;5.598;2022-12-07T00:50:42;32.03;30.47;33.95;;
66456;Laerm;56833;52.254;5.598;2022-12-07T00:50:52;32.13;30.22;35.11;;
66456;Laerm;56833;52.254;5.598;2022-12-07T00:51:02;31.16;29.91;32.75;;
66456;Laerm;56833;52.254;5.598;2022-12-07T00:51:13;31.51;29.87;33.97;;
66456;Laerm;56833;52.254;5.598;2022-12-07T00:51:24;31.50;29.91;33.05;;
66456;Laerm;56833;52.254;5.598;2022-12-07T00:51:35;31.48;30.18;34.09;;
66456;Laerm;56833;52.254;5.598;2022-12-07T00:51:47;31.21;29.89;34.43;;
66456;Laerm;56833;52.254;5.598;2022-12-07T00:51:57;33.97;29.72;50.06;;
66456;Laerm;56833;52.254;5.598;2022-12-07T00:52:07;38.88;30.98;55.70;;
66456;Laerm;56833;52.254;5.598;2022-12-07T00:52:18;31.89;30.28;34.34;;
66456;Laerm;56833;52.254;5.598;2022-12-07T00:52:28;31.33;29.85;33.56;;
66456;Laerm;56833;52.254;5.598;2022-12-07T00:52:38;31.40;30.01;33.21;;
66456;Laerm;56833;52.254;5.598;2022-12-07T00:52:48;31.52;30.08;33.00;;
66456;Laerm;56833;52.254;5.598;2022-12-07T00:52:59;31.16;29.86;32.64;;
66456;Laerm;56833;52.254;5.598;2022-12-07T00:53:09;31.33;29.48;39.53;;
66456;Laerm;56833;52.254;5.598;2022-12-07T00:53:19;31.35;30.05;33.02;;
66456;Laerm;56833;52.254;5.598;2022-12-07T00:53:29;31.33;29.73;32.94;;
66456;Laerm;56833;52.254;5.598;2022-12-07T00:53:40;31.63;30.11;33.01;;
66456;Laerm;56833;52.254;5.598;2022-12-07T00:53:50;31.29;30.03;34.01;;
66456;Laerm;56833;52.254;5.598;2022-12-07T00:54:01;31.12;29.76;32.47;;
66456;Laerm;56833;52.254;5.598;2022-12-07T00:54:11;30.98;29.15;32.64;;
66456;Laerm;56833;52.254;5.598;2022-12-07T00:54:21;30.92;29.78;32.47;;
66456;Laerm;56833;52.254;5.598;2022-12-07T00:54:31;30.74;29.25;34.07;;
66456;Laerm;56833;52.254;5.598;2022-12-07T00:54:42;30.98;29.69;33.25;;
66456;Laerm;56833;52.254;5.598;2022-12-07T00:54:52;31.78;29.92;34.07;;
66456;Laerm;56833;52.254;5.598;2022-12-07T00:55:02;31.23;29.40;32.71;;
66456;Laerm;56833;52.254;5.598;2022-12-07T00:55:13;31.34;28.94;36.34;;
66456;Laerm;56833;52.254;5.598;2022-12-07T00:55:23;30.78;29.20;33.22;;
66456;Laerm;56833;52.254;5.598;2022-12-07T00:55:34;30.93;29.42;33.96;;
66456;Laerm;56833;52.254;5.598;2022-12-07T00:55:45;31.36;29.49;36.12;;
66456;Laerm;56833;52.254;5.598;2022-12-07T00:55:55;31.05;29.43;36.20;;
66456;Laerm;56833;52.254;5.598;2022-12-07T00:56:07;30.79;29.65;32.42;;
66456;Laerm;56833;52.254;5.598;2022-12-07T00:56:19;30.92;29.32;32.62;;
66456;Laerm;56833;52.254;5.598;2022-12-07T00:56:29;30.99;29.52;35.86;;
66456;Laerm;56833;52.254;5.598;2022-12-07T00:56:40;31.07;29.59;32.34;;
66456;Laerm;56833;52.254;5.598;2022-12-07T00:56:50;31.28;30.00;33.14;;
66456;Laerm;56833;52.254;5.598;2022-12-07T00:57:00;31.44;29.84;34.68;;
66456;Laerm;56833;52.254;5.598;2022-12-07T00:57:11;31.21;29.70;33.68;;
66456;Laerm;56833;52.254;5.598;2022-12-07T00:57:21;31.28;29.80;34.92;;
66456;Laerm;56833;52.254;5.598;2022-12-07T00:57:31;31.17;29.25;35.10;;
66456;Laerm;56833;52.254;5.598;2022-12-07T00:57:41;31.05;29.53;32.70;;
66456;Laerm;56833;52.254;5.598;2022-12-07T00:57:51;31.38;29.86;35.32;;
66456;Laerm;56833;52.254;5.598;2022-12-07T00:58:02;31.93;30.23;36.02;;
66456;Laerm;56833;52.254;5.598;2022-12-07T00:58:12;31.15;29.82;33.25;;
66456;Laerm;56833;52.254;5.598;2022-12-07T00:58:23;30.96;29.01;33.01;;
66456;Laerm;56833;52.254;5.598;2022-12-07T00:58:33;31.21;29.66;33.10;;
66456;Laerm;56833;52.254;5.598;2022-12-07T00:58:44;31.13;29.68;33.32;;
66456;Laerm;56833;52.254;5.598;2022-12-07T00:59:00;31.04;29.74;34.53;;
66456;Laerm;56833;52.254;5.598;2022-12-07T00:59:11;31.22;29.72;36.19;;
66456;Laerm;56833;52.254;5.598;2022-12-07T00:59:22;31.78;30.16;34.84;;
66456;Laerm;56833;52.254;5.598;2022-12-07T00:59:32;31.18;29.85;32.82;;
66456;Laerm;56833;52.254;5.598;2022-12-07T00:59:42;31.25;29.39;34.26;;
66456;Laerm;56833;52.254;5.598;2022-12-07T00:59:53;31.13;29.64;36.31;;
66456;Laerm;56833;52.254;5.598;2022-12-07T01:00:05;31.02;29.60;35.92;;
66456;Laerm;56833;52.254;5.598;2022-12-07T01:00:16;30.68;29.47;33.12;;